createdAt,value
2019-05-30T00:00:17.654Z,81.00
2019-05-30T00:02:42.242Z,81.20
2019-05-30T00:05:10.846Z,80.80
2019-05-30T00:07:39.290Z,79.70
2019-05-30T00:10:07.831Z,79.90
2019-05-30T00:12:36.307Z,79.60
2019-05-30T00:15:07.844Z,80.20
2019-05-30T00:17:36.384Z,80.00
2019-05-30T00:20:06.497Z,80.80
2019-05-30T00:22:34.983Z,81.50
2019-05-30T00:25:06.271Z,82.60
2019-05-30T00:27:34.927Z,83.50
2019-05-30T00:30:03.986Z,84.00
2019-05-30T00:32:32.513Z,83.50
2019-05-30T00:35:02.063Z,83.70
2019-05-30T00:37:30.701Z,84.80
2019-05-30T00:39:59.890Z,84.60
2019-05-30T00:42:28.467Z,85.00
2019-05-30T00:44:57.868Z,85.20
2019-05-30T00:47:26.422Z,85.60
2019-05-30T00:49:56.129Z,85.10
2019-05-30T00:52:24.724Z,85.30
2019-05-30T00:54:53.176Z,85.90
2019-05-30T00:57:21.645Z,85.70
2019-05-30T00:59:50.099Z,85.70
2019-05-30T01:02:18.567Z,84.90
2019-05-30T01:04:46.999Z,85.20
2019-05-30T01:07:15.447Z,85.70
2019-05-30T01:09:43.916Z,86.40
2019-05-30T01:12:12.431Z,86.60
2019-05-30T01:14:40.874Z,86.30
2019-05-30T01:17:09.352Z,85.40
2019-05-30T01:19:37.873Z,85.40
2019-05-30T01:22:07.614Z,85.10
2019-05-30T01:24:36.342Z,85.20
2019-05-30T01:27:05.558Z,85.30
2019-05-30T01:29:34.246Z,85.10
2019-05-30T01:32:05.546Z,84.10
2019-05-30T01:34:34.126Z,83.40
2019-05-30T01:37:03.693Z,83.50
2019-05-30T01:39:32.392Z,83.80
2019-05-30T01:42:01.840Z,84.30
2019-05-30T01:44:30.450Z,84.80
2019-05-30T01:47:00.089Z,85.10
2019-05-30T01:49:28.721Z,84.80
2019-05-30T01:51:58.313Z,84.50
2019-05-30T01:54:26.885Z,84.50
2019-05-30T01:56:58.505Z,84.30
2019-05-30T01:59:27.033Z,83.70
2019-05-30T02:01:55.553Z,83.70
2019-05-30T02:04:23.998Z,83.70
2019-05-30T02:06:52.446Z,83.30
2019-05-30T02:09:20.888Z,83.30
2019-05-30T02:11:49.341Z,83.60
2019-05-30T02:14:17.855Z,83.60
2019-05-30T02:16:46.283Z,84.00
2019-05-30T02:19:14.808Z,83.80
2019-05-30T02:21:43.264Z,83.10
2019-05-30T02:24:12.282Z,82.90
2019-05-30T02:26:40.962Z,82.60
2019-05-30T02:29:10.452Z,82.10
2019-05-30T02:31:39.913Z,81.70
2019-05-30T02:34:10.125Z,81.80
2019-05-30T02:36:38.713Z,82.20
2019-05-30T02:39:09.974Z,82.10
2019-05-30T02:41:38.342Z,82.30
2019-05-30T02:44:07.714Z,82.30
2019-05-30T02:46:36.986Z,82.00
2019-05-30T02:49:07.244Z,82.00
2019-05-30T02:51:35.621Z,81.30
2019-05-30T02:54:06.499Z,80.90
2019-05-30T02:56:34.329Z,80.30
2019-05-30T02:59:03.932Z,80.40
2019-05-30T03:01:33.084Z,80.50
2019-05-30T03:04:02.308Z,80.50
2019-05-30T03:06:32.220Z,80.10
2019-05-30T03:09:01.880Z,79.60
2019-05-30T03:11:31.102Z,79.30
2019-05-30T03:13:59.618Z,79.20
2019-05-30T03:16:28.123Z,79.20
2019-05-30T03:18:56.657Z,78.90
2019-05-30T03:21:25.147Z,78.30
2019-05-30T03:23:53.820Z,77.60
2019-05-30T03:26:22.285Z,77.20
2019-05-30T03:28:53.545Z,76.80
2019-05-30T03:31:29.192Z,76.80
2019-05-30T03:33:53.919Z,76.00
2019-05-30T03:36:29.561Z,75.60
2019-05-30T03:38:52.611Z,75.50
2019-05-30T03:41:21.131Z,73.70
2019-05-30T03:43:49.580Z,73.60
2019-05-30T03:46:21.111Z,73.10
2019-05-30T03:48:52.610Z,72.70
2019-05-30T03:51:21.809Z,72.50
2019-05-30T03:53:50.468Z,71.90
2019-05-30T03:56:22.000Z,71.40
2019-05-30T03:58:56.340Z,71.10
2019-05-30T04:02:03.119Z,70.60
2019-05-30T04:04:46.701Z,70.10
2019-05-30T04:07:19.557Z,70.40
2019-05-30T04:09:51.376Z,69.20
2019-05-30T04:12:37.488Z,68.40
2019-05-30T04:15:23.853Z,66.80
2019-05-30T04:17:52.310Z,65.20
2019-05-30T04:20:23.061Z,62.30
2019-05-30T04:22:50.905Z,60.30
2019-05-30T04:25:19.364Z,59.40
2019-05-30T04:27:47.902Z,59.40
2019-05-30T04:30:18.069Z,59.50
2019-05-30T04:32:46.657Z,59.40
2019-05-30T04:35:16.868Z,58.90
2019-05-30T04:37:45.441Z,57.50
2019-05-30T04:40:15.484Z,57.60
2019-05-30T04:42:44.186Z,57.80
2019-05-30T04:45:13.661Z,58.20
2019-05-30T04:47:42.309Z,58.30
2019-05-30T04:50:12.210Z,58.90
2019-05-30T04:52:40.808Z,59.60
2019-05-30T04:55:10.724Z,60.50
2019-05-30T04:57:39.980Z,60.90
2019-05-30T05:00:10.647Z,61.20
2019-05-30T05:02:39.300Z,61.20
2019-05-30T05:05:08.452Z,61.40
2019-05-30T05:07:36.986Z,61.40
2019-05-30T05:10:09.594Z,61.70
2019-05-30T05:12:38.126Z,62.20
2019-05-30T05:15:07.050Z,62.10
2019-05-30T05:17:35.512Z,62.70
2019-05-30T05:20:06.594Z,63.10
2019-05-30T05:22:35.020Z,62.70
2019-05-30T05:25:04.624Z,62.80
2019-05-30T05:27:33.122Z,63.20
2019-05-30T05:30:01.587Z,63.30
2019-05-30T05:32:30.008Z,63.60
2019-05-30T05:34:58.466Z,63.70
2019-05-30T05:37:27.386Z,63.50
2019-05-30T05:39:55.942Z,63.40
2019-05-30T05:42:28.403Z,62.80
2019-05-30T05:44:54.693Z,62.40
2019-05-30T05:47:23.202Z,62.50
2019-05-30T05:49:51.663Z,61.40
2019-05-30T05:52:20.724Z,61.30
2019-05-30T05:54:49.380Z,61.50
2019-05-30T05:57:18.858Z,59.80
2019-05-30T05:59:47.435Z,60.00
2019-05-30T06:02:17.488Z,59.40
2019-05-30T06:04:46.244Z,59.20
2019-05-30T06:07:14.680Z,59.20
2019-05-30T06:09:43.140Z,59.10
2019-05-30T06:12:11.611Z,59.70
2019-05-30T06:14:40.088Z,59.80
2019-05-30T06:17:08.530Z,60.10
2019-05-30T06:19:45.757Z,60.00
2019-05-30T06:22:07.176Z,59.50
2019-05-30T06:24:35.693Z,59.40
2019-05-30T06:27:04.274Z,58.80
2019-05-30T06:29:32.726Z,58.30
2019-05-30T06:32:01.157Z,58.10
2019-05-30T06:34:38.824Z,58.10
2019-05-30T06:36:59.755Z,58.30
2019-05-30T06:39:29.548Z,58.00
2019-05-30T06:41:58.144Z,57.40
2019-05-30T06:44:26.601Z,58.30
2019-05-30T06:46:55.133Z,58.80
2019-05-30T06:49:24.732Z,59.00
2019-05-30T06:51:53.393Z,58.80
2019-05-30T06:54:23.945Z,58.30
2019-05-30T06:56:52.225Z,57.40
2019-05-30T06:59:21.427Z,56.70
2019-05-30T07:01:52.047Z,56.40
2019-05-30T07:04:20.650Z,55.90
2019-05-30T07:06:49.668Z,55.50
2019-05-30T07:09:18.408Z,54.60
2019-05-30T07:11:46.949Z,55.00
2019-05-30T07:14:15.564Z,55.30
2019-05-30T07:16:44.080Z,55.40
2019-05-30T07:19:12.542Z,54.70
2019-05-30T07:21:41.076Z,53.40
2019-05-30T07:24:09.553Z,52.90
2019-05-30T07:26:38.090Z,52.50
2019-05-30T07:29:06.528Z,53.40
2019-05-30T07:31:34.994Z,53.40
2019-05-30T07:34:03.576Z,54.60
2019-05-30T07:36:32.306Z,54.50
2019-05-30T07:39:00.849Z,53.80
2019-05-30T07:41:29.299Z,53.10
2019-05-30T07:43:57.809Z,53.00
2019-05-30T07:46:26.792Z,52.10
2019-05-30T07:48:55.385Z,51.80
2019-05-30T07:51:24.612Z,52.60
2019-05-30T07:53:53.187Z,53.10
2019-05-30T07:56:21.651Z,53.60
2019-05-30T07:58:50.434Z,55.00
2019-05-30T08:01:18.932Z,54.80
2019-05-30T08:03:47.466Z,54.90
2019-05-30T08:06:16.023Z,54.20
2019-05-30T08:08:44.468Z,52.90
2019-05-30T08:11:12.909Z,52.30
2019-05-30T08:13:41.360Z,52.90
2019-05-30T08:16:09.873Z,53.50
2019-05-30T08:18:38.317Z,53.60
2019-05-30T08:21:06.939Z,53.30
2019-05-30T08:23:36.298Z,52.70
2019-05-30T08:26:04.897Z,52.70
2019-05-30T08:28:34.324Z,52.80
2019-05-30T08:31:02.844Z,53.70
2019-05-30T08:33:31.464Z,55.10
2019-05-30T08:35:59.991Z,54.80
2019-05-30T08:38:29.007Z,55.10
2019-05-30T08:40:57.660Z,56.10
2019-05-30T08:43:26.143Z,56.10
2019-05-30T08:45:54.584Z,56.90
2019-05-30T08:48:23.091Z,56.30
2019-05-30T08:50:51.585Z,56.10
2019-05-30T08:53:20.059Z,56.70
2019-05-30T08:55:48.592Z,56.60
2019-05-30T08:58:17.096Z,55.50
2019-05-30T09:00:45.535Z,55.50
2019-05-30T09:03:14.058Z,56.10
2019-05-30T09:05:57.003Z,54.40
2019-05-30T09:08:12.770Z,53.80
2019-05-30T09:10:42.557Z,53.00
2019-05-30T09:13:11.363Z,53.10
2019-05-30T09:15:40.961Z,53.60
2019-05-30T09:18:09.652Z,55.10
2019-05-30T09:20:39.816Z,57.90
2019-05-30T09:23:08.333Z,56.80
2019-05-30T09:25:37.219Z,57.40
2019-05-30T09:28:07.046Z,56.90
2019-05-30T09:30:35.517Z,56.90
2019-05-30T09:33:04.105Z,57.20
2019-05-30T09:35:32.555Z,58.10
2019-05-30T09:38:01.012Z,58.40
2019-05-30T09:40:31.114Z,58.70
2019-05-30T09:42:59.609Z,57.50
2019-05-30T09:45:28.184Z,58.30
2019-05-30T09:47:56.621Z,58.70
2019-05-30T09:50:25.148Z,57.70
2019-05-30T09:52:53.608Z,57.30
2019-05-30T09:55:22.427Z,57.60
2019-05-30T09:57:51.703Z,57.00
2019-05-30T10:00:22.086Z,56.70
2019-05-30T10:02:50.681Z,56.50
2019-05-30T10:05:24.325Z,56.80
2019-05-30T10:07:52.850Z,57.50
2019-05-30T10:10:21.953Z,58.20
2019-05-30T10:12:50.467Z,59.00
2019-05-30T10:15:19.481Z,59.70
2019-05-30T10:17:49.529Z,59.80
2019-05-30T10:20:18.808Z,59.80
2019-05-30T10:22:49.005Z,59.90
2019-05-30T10:25:17.823Z,60.30
2019-05-30T10:27:48.027Z,60.40
2019-05-30T10:30:18.498Z,59.60
2019-05-30T10:32:48.565Z,58.90
2019-05-30T10:35:17.258Z,58.50
2019-05-30T10:37:47.094Z,58.80
2019-05-30T10:40:16.512Z,59.70
2019-05-30T10:42:46.202Z,60.40
2019-05-30T10:45:15.838Z,61.90
2019-05-30T10:47:45.840Z,64.00
2019-05-30T10:50:14.946Z,66.50
2019-05-30T10:52:43.514Z,66.10
2019-05-30T10:55:13.609Z,66.00
2019-05-30T10:57:42.068Z,66.60
2019-05-30T11:00:13.594Z,68.20
2019-05-30T11:02:42.034Z,70.00
2019-05-30T11:05:11.208Z,73.20
2019-05-30T11:08:02.067Z,75.70
2019-05-30T11:10:36.120Z,75.60
2019-05-30T11:13:07.305Z,77.10
2019-05-30T11:15:35.753Z,77.20
2019-05-30T11:18:04.548Z,78.00
2019-05-30T11:20:32.985Z,77.40
2019-05-30T11:23:01.437Z,76.00
2019-05-30T11:25:29.959Z,75.50
2019-05-30T11:27:58.909Z,74.70
2019-05-30T11:30:27.631Z,74.70
2019-05-30T11:32:57.285Z,75.80
2019-05-30T11:35:25.865Z,76.20
2019-05-30T11:37:55.207Z,75.90
2019-05-30T11:40:24.333Z,75.50
2019-05-30T11:42:53.381Z,75.90
2019-05-30T11:45:23.253Z,75.70
2019-05-30T11:47:51.709Z,75.90
2019-05-30T11:50:20.555Z,74.90
2019-05-30T11:52:49.841Z,75.00
2019-05-30T11:55:18.456Z,74.70
2019-05-30T11:57:46.911Z,73.70
2019-05-30T12:00:16.044Z,73.10
2019-05-30T12:02:44.509Z,71.90
2019-05-30T12:05:13.797Z,71.40
2019-05-30T12:07:42.308Z,70.90
2019-05-30T12:10:11.200Z,70.00
2019-05-30T12:12:39.682Z,68.00
2019-05-30T12:15:09.434Z,68.10
2019-05-30T12:17:37.892Z,66.00
2019-05-30T12:20:07.894Z,65.10
2019-05-30T12:22:36.503Z,63.80
2019-05-30T12:25:08.511Z,64.50
2019-05-30T12:27:36.986Z,64.90
2019-05-30T12:30:09.266Z,65.70
2019-05-30T12:32:37.718Z,65.80
2019-05-30T12:35:09.825Z,64.70
2019-05-30T12:37:53.640Z,63.60
2019-05-30T12:40:10.505Z,63.80
2019-05-30T12:42:39.006Z,64.10
2019-05-30T12:45:10.967Z,65.10
2019-05-30T12:47:39.407Z,65.20
2019-05-30T12:50:12.435Z,65.00
2019-05-30T12:52:40.897Z,65.00
2019-05-30T12:55:10.855Z,65.00
2019-05-30T12:57:39.369Z,65.20
2019-05-30T13:00:18.446Z,65.50
2019-05-30T13:02:40.197Z,65.20
2019-05-30T13:05:08.990Z,65.30
2019-05-30T13:07:37.516Z,65.20
2019-05-30T13:10:09.837Z,65.40
2019-05-30T13:12:38.410Z,65.20
2019-05-30T13:15:07.610Z,66.80
2019-05-30T13:17:36.055Z,68.30
2019-05-30T13:20:07.853Z,70.30
2019-05-30T13:22:36.544Z,71.00
2019-05-30T13:25:09.419Z,73.50
2019-05-30T13:27:37.924Z,72.70
2019-05-30T13:30:09.018Z,72.80
2019-05-30T13:32:37.534Z,71.60
2019-05-30T13:35:09.331Z,71.70
2019-05-30T13:37:37.773Z,71.50
2019-05-30T13:40:23.714Z,72.00
2019-05-30T13:42:39.112Z,72.40
2019-05-30T13:45:09.843Z,71.90
2019-05-30T13:47:38.838Z,72.30
2019-05-30T13:50:13.008Z,71.90
2019-05-30T13:52:39.726Z,72.50
2019-05-30T13:55:10.274Z,72.00
2019-05-30T13:57:38.863Z,72.40
2019-05-30T14:00:08.415Z,73.90
2019-05-30T14:02:36.864Z,74.20
2019-05-30T14:05:08.196Z,74.40
2019-05-30T14:07:36.829Z,75.10
2019-05-30T14:10:10.723Z,76.60
2019-05-30T14:12:39.342Z,76.90
2019-05-30T14:15:11.093Z,77.40
2019-05-30T14:17:39.258Z,76.50
2019-05-30T14:20:09.477Z,75.90
2019-05-30T14:22:38.003Z,75.90
2019-05-30T14:25:11.588Z,75.80
2019-05-30T14:27:40.159Z,74.30
2019-05-30T14:30:10.858Z,74.80
2019-05-30T14:32:39.559Z,74.30
2019-05-30T14:35:08.670Z,74.40
2019-05-30T14:37:37.199Z,74.80
2019-05-30T14:40:11.050Z,75.40
2019-05-30T14:42:39.729Z,75.50
2019-05-30T14:45:10.406Z,74.90
2019-05-30T14:47:39.285Z,74.10
2019-05-30T14:50:10.576Z,73.70
2019-05-30T14:52:39.461Z,73.40
2019-05-30T14:55:09.074Z,73.20
2019-05-30T14:57:37.879Z,73.20
2019-05-30T15:00:09.260Z,73.40
2019-05-30T15:02:38.191Z,74.00
2019-05-30T15:05:07.428Z,73.60
2019-05-30T15:07:36.136Z,73.70
2019-05-30T15:10:08.786Z,73.60
2019-05-30T15:12:37.425Z,74.20
2019-05-30T15:15:09.055Z,74.60
2019-05-30T15:17:37.616Z,74.90
2019-05-30T15:20:10.682Z,74.10
2019-05-30T15:22:39.915Z,74.40
2019-05-30T15:25:10.062Z,74.30
2019-05-30T15:27:38.905Z,73.20
2019-05-30T15:30:12.681Z,73.10
2019-05-30T15:32:41.388Z,72.90
2019-05-30T15:35:11.013Z,72.30
2019-05-30T15:37:40.955Z,72.80
2019-05-30T15:40:10.941Z,72.70
2019-05-30T15:42:39.527Z,72.80
2019-05-30T15:45:09.922Z,72.30
2019-05-30T15:47:38.636Z,71.90
2019-05-30T15:50:08.297Z,71.90
2019-05-30T15:52:37.401Z,71.70
2019-05-30T15:55:07.484Z,71.70
2019-05-30T15:57:36.713Z,71.50
2019-05-30T16:00:10.019Z,71.20
2019-05-30T16:02:38.717Z,71.00
2019-05-30T16:05:10.319Z,71.10
2019-05-30T16:07:39.072Z,71.20
2019-05-30T16:10:09.053Z,72.00
2019-05-30T16:12:37.538Z,71.90
2019-05-30T16:15:08.102Z,72.10
2019-05-30T16:17:36.603Z,72.20
2019-05-30T16:20:06.889Z,72.70
2019-05-30T16:22:35.444Z,73.10
2019-05-30T16:25:07.572Z,73.00
2019-05-30T16:27:36.079Z,73.10
2019-05-30T16:30:07.050Z,73.20
2019-05-30T16:32:35.706Z,73.70
2019-05-30T16:35:05.563Z,74.70
2019-05-30T16:37:34.030Z,74.40
2019-05-30T16:40:06.247Z,73.90
2019-05-30T16:42:32.940Z,73.50
2019-05-30T16:45:01.443Z,73.10
2019-05-30T16:47:29.923Z,72.70
2019-05-30T16:49:58.378Z,72.20
2019-05-30T16:52:27.316Z,72.10
2019-05-30T16:54:55.859Z,71.70
2019-05-30T16:57:24.296Z,72.10
2019-05-30T16:59:52.734Z,72.30
2019-05-30T17:02:21.182Z,73.10
2019-05-30T17:04:49.645Z,73.40
2019-05-30T17:07:19.115Z,73.40
2019-05-30T17:09:47.674Z,73.70
2019-05-30T17:12:17.331Z,74.40
2019-05-30T17:14:46.031Z,74.30
2019-05-30T17:17:14.466Z,74.20
2019-05-30T17:19:42.917Z,74.80
2019-05-30T17:22:11.363Z,75.20
2019-05-30T17:24:39.813Z,75.20
2019-05-30T17:27:08.338Z,75.20
2019-05-30T17:29:36.798Z,75.70
2019-05-30T17:32:05.258Z,76.00
2019-05-30T17:34:33.709Z,76.10
2019-05-30T17:37:02.150Z,76.50
2019-05-30T17:39:30.744Z,76.80
2019-05-30T17:41:59.194Z,76.70
2019-05-30T17:44:27.639Z,77.20
2019-05-30T17:46:56.161Z,77.30
2019-05-30T17:49:25.747Z,77.70
2019-05-30T17:51:54.421Z,77.80
2019-05-30T17:54:23.833Z,78.00
2019-05-30T17:56:52.401Z,78.30
2019-05-30T17:59:22.275Z,78.90
2019-05-30T18:01:50.789Z,79.30
2019-05-30T18:04:20.338Z,79.70
2019-05-30T18:06:48.908Z,80.00
2019-05-30T18:09:17.338Z,80.20
2019-05-30T18:11:45.834Z,80.50
2019-05-30T18:14:14.283Z,80.80
2019-05-30T18:16:42.741Z,80.70
2019-05-30T18:19:11.415Z,81.50
2019-05-30T18:21:41.579Z,81.90
2019-05-30T18:24:10.021Z,83.20
2019-05-30T18:26:38.515Z,82.40
2019-05-30T18:29:06.999Z,82.50
2019-05-30T18:31:35.465Z,82.40
2019-05-30T18:34:05.404Z,82.60
2019-05-30T18:36:33.919Z,82.90
2019-05-30T18:39:02.422Z,82.70
2019-05-30T18:41:30.954Z,82.70
2019-05-30T18:43:59.432Z,83.40
2019-05-30T18:46:29.070Z,84.30
2019-05-30T18:48:57.839Z,84.90
2019-05-30T18:51:26.370Z,85.40
2019-05-30T18:53:54.813Z,85.50
2019-05-30T18:56:29.006Z,85.90
2019-05-30T18:58:57.454Z,85.70
2019-05-30T19:01:27.277Z,86.40
2019-05-30T19:03:56.031Z,86.60
2019-05-30T19:06:26.053Z,87.00
2019-05-30T19:08:54.636Z,87.80
2019-05-30T19:11:29.097Z,88.10
2019-05-30T19:13:53.313Z,88.00
2019-05-30T19:16:21.914Z,88.00
2019-05-30T19:18:50.416Z,88.40
2019-05-30T19:21:18.857Z,89.00
2019-05-30T19:23:47.358Z,89.30
2019-05-30T19:26:15.807Z,89.80
2019-05-30T19:28:44.297Z,90.10
2019-05-30T19:31:15.573Z,90.30
2019-05-30T19:33:44.203Z,90.50
2019-05-30T19:36:12.979Z,90.80
2019-05-30T19:38:41.628Z,91.40
2019-05-30T19:41:10.061Z,91.50
2019-05-30T19:43:38.514Z,91.70
2019-05-30T19:46:07.038Z,92.30
2019-05-30T19:48:36.449Z,91.70
2019-05-30T19:51:05.261Z,92.00
2019-05-30T19:53:34.711Z,92.40
2019-05-30T19:56:03.480Z,92.30
2019-05-30T19:58:31.968Z,92.30
2019-05-30T20:01:00.459Z,92.60
2019-05-30T20:03:37.504Z,92.70
2019-05-30T20:05:59.340Z,92.80
2019-05-30T20:08:43.969Z,93.30
2019-05-30T20:10:57.956Z,93.50
2019-05-30T20:13:28.530Z,93.80
2019-05-30T20:15:57.040Z,93.90
2019-05-30T20:18:25.712Z,94.10
2019-05-30T20:20:59.777Z,94.20
2019-05-30T20:23:28.354Z,94.30
2019-05-30T20:25:56.876Z,94.40
2019-05-30T20:28:25.470Z,94.20
2019-05-30T20:30:56.881Z,94.40
2019-05-30T20:33:26.105Z,94.50
2019-05-30T20:35:54.556Z,94.50
2019-05-30T20:38:23.072Z,94.60
2019-05-30T20:40:54.274Z,94.70
2019-05-30T20:43:26.099Z,94.70
2019-05-30T20:45:56.129Z,94.80
2019-05-30T20:48:24.652Z,94.90
2019-05-30T20:50:53.100Z,94.80
2019-05-30T20:53:21.581Z,94.80
2019-05-30T20:55:52.750Z,94.80
2019-05-30T20:58:21.224Z,94.90
2019-05-30T21:00:52.582Z,94.90
2019-05-30T21:03:21.028Z,95.30
2019-05-30T21:05:50.597Z,95.20
2019-05-30T21:08:19.045Z,95.20
2019-05-30T21:10:48.824Z,95.40
2019-05-30T21:13:18.806Z,95.40
2019-05-30T21:15:48.387Z,95.20
2019-05-30T21:18:20.858Z,95.30
2019-05-30T21:20:49.484Z,95.50
2019-05-30T21:23:18.196Z,95.50
2019-05-30T21:25:47.320Z,95.50
2019-05-30T21:28:16.130Z,95.80
2019-05-30T21:30:45.398Z,95.70
2019-05-30T21:33:13.975Z,95.70
2019-05-30T21:35:48.626Z,96.00
2019-05-30T21:38:17.522Z,95.90
2019-05-30T21:40:46.532Z,96.00
2019-05-30T21:43:16.643Z,96.10
2019-05-30T21:45:51.210Z,96.30
2019-05-30T21:48:19.670Z,96.40
2019-05-30T21:50:49.108Z,96.70
2019-05-30T21:53:18.319Z,96.70
2019-05-30T21:55:47.950Z,96.90
2019-05-30T21:58:16.647Z,97.30
2019-05-30T22:00:51.149Z,97.50
2019-05-30T22:03:19.683Z,97.10
2019-05-30T22:05:48.622Z,97.10
2019-05-30T22:08:18.255Z,97.30
2019-05-30T22:10:47.652Z,97.30
2019-05-30T22:13:16.246Z,97.40
2019-05-30T22:15:45.988Z,97.40
2019-05-30T22:18:14.916Z,97.50
2019-05-30T22:20:43.837Z,97.50
2019-05-30T22:23:14.097Z,97.50
2019-05-30T22:25:42.576Z,97.50
2019-05-30T22:28:11.046Z,97.60
2019-05-30T22:30:39.503Z,97.60
2019-05-30T22:33:07.978Z,97.80
2019-05-30T22:35:36.441Z,97.70
2019-05-30T22:38:04.881Z,97.60
2019-05-30T22:40:33.351Z,97.70
2019-05-30T22:43:01.810Z,97.60
2019-05-30T22:45:30.309Z,97.90
2019-05-30T22:47:58.817Z,97.50
2019-05-30T22:50:27.272Z,97.60
2019-05-30T22:52:55.722Z,97.80
2019-05-30T22:55:24.248Z,97.60
2019-05-30T22:57:52.724Z,97.30
2019-05-30T23:00:22.862Z,97.20
2019-05-30T23:02:51.936Z,97.30
2019-05-30T23:05:20.528Z,97.50
2019-05-30T23:07:49.808Z,97.30
2019-05-30T23:10:18.315Z,97.30
2019-05-30T23:12:47.718Z,97.40
2019-05-30T23:15:16.377Z,97.40
2019-05-30T23:17:46.051Z,97.40
2019-05-30T23:20:14.956Z,97.50
2019-05-30T23:22:43.417Z,97.60
2019-05-30T23:25:12.090Z,97.80
2019-05-30T23:27:40.562Z,97.70
2019-05-30T23:30:09.164Z,97.60
2019-05-30T23:32:37.608Z,97.50
2019-05-30T23:35:06.762Z,97.30
2019-05-30T23:37:35.219Z,97.10
2019-05-30T23:40:04.724Z,97.10
2019-05-30T23:42:33.170Z,96.90
2019-05-30T23:45:01.639Z,96.80
2019-05-30T23:47:30.140Z,96.80
2019-05-30T23:49:58.751Z,96.60
2019-05-30T23:52:27.218Z,96.40
2019-05-30T23:54:56.265Z,96.30
2019-05-30T23:57:24.994Z,96.30
2019-05-30T23:59:54.646Z,96.30
